createdAt,value
2022-09-07T00:02:14.215Z,3.08
2022-09-07T00:04:41.537Z,1.73
2022-09-07T00:07:08.800Z,1.30
2022-09-07T00:09:36.064Z,1.58
2022-09-07T00:12:03.400Z,2.03
2022-09-07T00:14:30.639Z,3.05
2022-09-07T00:16:57.839Z,2.78
2022-09-07T00:19:25.259Z,3.40
2022-09-07T00:21:52.455Z,1.95
2022-09-07T00:24:19.870Z,2.63
2022-09-07T00:26:47.266Z,3.17
2022-09-07T00:29:14.490Z,14.07
2022-09-07T00:31:41.941Z,5.88
2022-09-07T00:34:09.199Z,7.30
2022-09-07T00:36:36.457Z,4.80
2022-09-07T00:39:03.726Z,6.05
2022-09-07T00:41:31.247Z,8.77
2022-09-07T00:44:00.260Z,11.07
2022-09-07T00:46:28.954Z,9.93
2022-09-07T00:49:00.497Z,6.40
2022-09-07T00:51:33.898Z,7.00
2022-09-07T00:54:03.660Z,8.13
2022-09-07T00:56:32.941Z,6.53
2022-09-07T00:59:00.339Z,9.50
2022-09-07T01:01:28.096Z,5.25
2022-09-07T01:03:57.868Z,9.20
2022-09-07T01:06:36.089Z,4.97
2022-09-07T01:09:06.417Z,6.32
2022-09-07T01:11:37.382Z,3.50
2022-09-07T01:14:10.088Z,4.43
2022-09-07T01:16:49.601Z,4.28
2022-09-07T01:19:35.860Z,2.53
2022-09-07T01:22:06.298Z,2.63
2022-09-07T01:24:33.489Z,2.47
2022-09-07T01:27:19.499Z,3.83
2022-09-07T01:29:46.671Z,2.92
2022-09-07T01:32:20.890Z,2.15
2022-09-07T01:34:53.212Z,4.15
2022-09-07T01:37:26.431Z,4.70
2022-09-07T01:39:53.805Z,4.65
2022-09-07T01:42:23.218Z,4.43
2022-09-07T01:44:54.629Z,2.95
2022-09-07T01:47:38.034Z,5.43
2022-09-07T01:50:08.357Z,2.97
2022-09-07T01:52:38.829Z,2.72
2022-09-07T01:55:09.111Z,1.90
2022-09-07T01:57:42.500Z,2.38
2022-09-07T02:00:11.539Z,3.70
2022-09-07T02:02:45.422Z,2.50
2022-09-07T02:05:34.391Z,1.75
2022-09-07T02:08:07.127Z,2.45
2022-09-07T02:10:38.545Z,2.60
2022-09-07T02:13:17.326Z,2.08
2022-09-07T02:15:50.546Z,2.95
2022-09-07T02:18:18.137Z,2.78
2022-09-07T02:20:48.064Z,5.13
2022-09-07T02:23:18.873Z,1.60
2022-09-07T02:25:53.739Z,2.88
2022-09-07T02:28:26.556Z,3.17
2022-09-07T02:30:56.532Z,2.20
2022-09-07T02:33:23.933Z,3.75
2022-09-07T02:35:51.605Z,2.38
2022-09-07T02:38:19.333Z,2.75
2022-09-07T02:40:53.058Z,2.38
2022-09-07T02:43:21.508Z,2.60
2022-09-07T02:46:07.452Z,3.08
2022-09-07T02:48:55.781Z,3.58
2022-09-07T02:51:35.880Z,8.07
2022-09-07T02:54:03.146Z,4.03
2022-09-07T02:57:05.912Z,4.50
2022-09-07T02:59:40.720Z,4.72
2022-09-07T03:02:40.434Z,7.15
2022-09-07T03:05:15.090Z,8.70
2022-09-07T03:07:55.698Z,7.25
2022-09-07T03:10:24.607Z,8.82
2022-09-07T03:12:52.120Z,10.10
2022-09-07T03:15:21.470Z,12.70
2022-09-07T03:17:49.170Z,10.38
2022-09-07T03:20:17.149Z,14.30
2022-09-07T03:22:48.092Z,10.32
2022-09-07T03:25:15.841Z,14.45
2022-09-07T03:27:43.301Z,16.67
2022-09-07T03:30:11.418Z,13.45
2022-09-07T03:32:39.658Z,13.93
2022-09-07T03:35:07.829Z,13.07
2022-09-07T03:37:38.162Z,13.02
2022-09-07T03:40:06.790Z,13.95
2022-09-07T03:42:34.086Z,14.90
2022-09-07T03:45:01.372Z,18.05
2022-09-07T03:47:28.632Z,13.63
2022-09-07T03:49:55.879Z,13.63
2022-09-07T03:52:23.297Z,18.13
2022-09-07T03:54:50.623Z,16.75
2022-09-07T03:57:20.235Z,17.85
2022-09-07T03:59:48.017Z,17.65
2022-09-07T04:02:15.670Z,16.80
2022-09-07T04:04:43.832Z,17.73
2022-09-07T04:07:11.245Z,18.23
2022-09-07T04:09:38.526Z,18.98
2022-09-07T04:12:05.816Z,22.13
2022-09-07T04:14:34.492Z,26.35
2022-09-07T04:17:01.805Z,32.45
2022-09-07T04:19:30.073Z,26.83
2022-09-07T04:21:57.377Z,31.10
2022-09-07T04:24:24.677Z,23.85
2022-09-07T04:26:52.398Z,36.35
2022-09-07T04:29:19.655Z,36.08
2022-09-07T04:31:46.903Z,29.65
2022-09-07T04:34:14.778Z,33.08
2022-09-07T04:36:42.136Z,37.63
2022-09-07T04:39:09.385Z,31.38
2022-09-07T04:41:36.682Z,30.50
2022-09-07T04:44:05.107Z,31.90
2022-09-07T04:46:36.573Z,28.23
2022-09-07T04:49:08.546Z,32.53
2022-09-07T04:51:36.162Z,29.58
2022-09-07T04:54:04.025Z,32.50
2022-09-07T04:56:32.080Z,28.23
2022-09-07T04:58:59.849Z,30.23
2022-09-07T05:01:27.200Z,34.03
2022-09-07T05:03:54.636Z,29.50
2022-09-07T05:06:22.750Z,27.33
2022-09-07T05:08:51.318Z,25.45
2022-09-07T05:11:19.586Z,25.70
2022-09-07T05:13:47.017Z,22.20
2022-09-07T05:16:18.297Z,21.55
2022-09-07T05:18:46.228Z,20.42
2022-09-07T05:21:15.117Z,19.55
2022-09-07T05:23:42.916Z,19.65
2022-09-07T05:26:10.840Z,22.52
2022-09-07T05:28:38.852Z,19.25
2022-09-07T05:31:21.459Z,25.58
2022-09-07T05:36:41.008Z,17.23
2022-09-07T05:39:08.916Z,18.90
2022-09-07T05:41:36.202Z,19.00
2022-09-07T05:46:52.593Z,16.65
2022-09-07T05:49:19.949Z,16.40
2022-09-07T05:51:48.330Z,18.80
2022-09-07T05:54:15.714Z,18.92
2022-09-07T05:56:42.980Z,19.23
2022-09-07T05:59:10.289Z,21.48
2022-09-07T06:01:37.747Z,22.35
2022-09-07T06:04:05.069Z,24.52
2022-09-07T06:06:32.588Z,22.35
2022-09-07T06:09:00.169Z,27.13
2022-09-07T06:11:27.503Z,22.80
2022-09-07T06:13:57.196Z,19.42
2022-09-07T06:16:24.891Z,17.58
2022-09-07T06:18:52.255Z,22.17
2022-09-07T06:21:21.005Z,29.13
2022-09-07T06:23:49.121Z,22.63
2022-09-07T06:26:17.180Z,22.42
2022-09-07T06:28:48.953Z,20.40
2022-09-07T06:31:18.206Z,19.55
2022-09-07T06:33:46.250Z,19.60
2022-09-07T06:36:15.252Z,17.40
2022-09-07T06:38:42.912Z,20.48
2022-09-07T06:43:59.906Z,18.10
2022-09-07T06:49:14.368Z,17.00
2022-09-07T06:51:41.719Z,15.23
2022-09-07T06:56:57.714Z,15.38
2022-09-07T06:59:25.144Z,17.23
2022-09-07T07:01:52.385Z,16.80
2022-09-07T07:04:19.638Z,15.95
2022-09-07T07:06:46.988Z,17.23
2022-09-07T07:09:14.528Z,16.75
2022-09-07T07:11:43.591Z,15.43
2022-09-07T07:14:16.783Z,20.60
2022-09-07T07:16:44.134Z,17.40
2022-09-07T07:19:11.543Z,24.08
2022-09-07T07:22:07.388Z,14.90
2022-09-07T07:24:26.112Z,20.40
2022-09-07T07:26:53.714Z,15.05
2022-09-07T07:29:22.864Z,16.73
2022-09-07T07:31:51.225Z,13.57
2022-09-07T07:34:18.502Z,14.20
2022-09-07T07:36:45.728Z,13.40
2022-09-07T07:42:03.545Z,12.48
2022-09-07T07:44:32.873Z,9.77
2022-09-07T07:47:00.301Z,16.98
2022-09-07T07:49:27.534Z,14.18
2022-09-07T07:54:44.085Z,12.23
2022-09-07T07:57:11.909Z,10.40
2022-09-07T07:59:39.524Z,8.43
2022-09-07T08:02:08.769Z,8.35
2022-09-07T08:04:36.934Z,9.68
2022-09-07T08:07:09.740Z,8.93
2022-09-07T08:09:41.666Z,10.32
2022-09-07T08:12:09.764Z,11.68
2022-09-07T08:14:40.811Z,9.30
2022-09-07T08:17:08.957Z,9.95
2022-09-07T08:19:38.208Z,13.90
2022-09-07T08:22:06.073Z,8.55
2022-09-07T08:24:33.537Z,7.63
2022-09-07T08:27:00.736Z,7.68
2022-09-07T08:29:31.318Z,24.05
2022-09-07T08:32:01.094Z,10.38
2022-09-07T08:34:28.269Z,8.77
2022-09-07T08:36:55.533Z,14.15
2022-09-07T08:39:22.697Z,7.95
2022-09-07T08:42:03.048Z,8.68
2022-09-07T08:44:33.049Z,15.10
2022-09-07T08:47:20.451Z,13.25
2022-09-07T08:49:51.358Z,17.73
2022-09-07T08:52:30.049Z,13.55
2022-09-07T08:55:12.602Z,12.55
2022-09-07T08:57:41.151Z,11.82
2022-09-07T09:00:12.323Z,10.52
2022-09-07T09:02:43.995Z,11.35
2022-09-07T09:05:37.862Z,12.63
2022-09-07T09:08:15.258Z,8.88
2022-09-07T09:10:48.632Z,9.88
2022-09-07T09:13:19.290Z,17.17
2022-09-07T09:15:52.329Z,7.72
2022-09-07T09:18:31.986Z,10.57
2022-09-07T09:21:00.437Z,12.52
2022-09-07T09:23:28.933Z,6.53
2022-09-07T09:26:01.538Z,8.02
2022-09-07T09:28:31.777Z,7.35
2022-09-07T09:30:59.802Z,9.13
2022-09-07T09:33:28.300Z,9.45
2022-09-07T09:35:56.790Z,9.65
2022-09-07T09:38:29.969Z,7.00
2022-09-07T09:40:58.355Z,6.93
2022-09-07T09:43:26.939Z,9.05
2022-09-07T09:48:43.431Z,10.30
2022-09-07T09:54:18.461Z,6.88
2022-09-07T09:56:46.901Z,9.30
2022-09-07T10:05:29.040Z,6.80
2022-09-07T10:07:56.888Z,7.85
2022-09-07T10:10:24.733Z,6.97
2022-09-07T10:12:54.485Z,8.43
2022-09-07T10:15:40.002Z,8.52
2022-09-07T10:18:16.898Z,7.57
2022-09-07T10:20:44.323Z,15.15
2022-09-07T10:23:20.789Z,6.03
2022-09-07T10:25:48.025Z,5.47
2022-09-07T10:28:22.522Z,6.32
2022-09-07T10:31:12.418Z,6.40
2022-09-07T10:36:44.418Z,7.72
2022-09-07T10:39:15.973Z,5.50
2022-09-07T10:41:55.390Z,6.65
2022-09-07T10:44:41.465Z,6.15
2022-09-07T10:47:16.785Z,9.48
2022-09-07T10:52:57.953Z,7.57
2022-09-07T10:55:33.287Z,8.48
2022-09-07T10:59:01.487Z,7.05
2022-09-07T11:01:31.166Z,7.38
2022-09-07T11:04:04.508Z,7.68
2022-09-07T11:06:42.502Z,6.93
2022-09-07T11:09:19.593Z,6.68
2022-09-07T11:12:05.685Z,7.88
2022-09-07T11:14:55.958Z,12.70
2022-09-07T11:17:25.016Z,12.48
2022-09-07T11:20:12.357Z,9.85
2022-09-07T11:22:44.279Z,9.95
2022-09-07T11:25:31.063Z,12.07
2022-09-07T11:28:23.724Z,13.07
2022-09-07T11:31:00.281Z,11.70
2022-09-07T11:33:31.398Z,8.93
2022-09-07T11:36:13.471Z,15.45
2022-09-07T11:38:51.284Z,12.63
2022-09-07T11:41:24.775Z,9.90
2022-09-07T11:44:13.915Z,8.25
2022-09-07T11:46:45.728Z,9.43
2022-09-07T11:49:15.783Z,11.38
2022-09-07T11:51:46.599Z,8.93
2022-09-07T11:54:38.574Z,10.18
2022-09-07T11:57:20.367Z,8.52
2022-09-07T12:00:17.832Z,8.25
2022-09-07T12:03:04.506Z,9.48
2022-09-07T12:05:55.529Z,8.43
2022-09-07T12:08:31.213Z,6.65
2022-09-07T12:11:06.080Z,6.78
2022-09-07T12:13:57.431Z,7.85
2022-09-07T12:16:45.949Z,7.35
2022-09-07T12:19:22.163Z,6.57
2022-09-07T12:21:56.493Z,12.30
2022-09-07T12:24:44.999Z,7.80
2022-09-07T12:27:21.038Z,8.10
2022-09-07T12:30:14.631Z,6.88
2022-09-07T12:32:55.707Z,7.47
2022-09-07T12:35:35.822Z,7.47
2022-09-07T12:38:24.676Z,6.10
2022-09-07T12:41:03.227Z,7.60
2022-09-07T12:43:46.989Z,6.97
2022-09-07T12:46:40.294Z,8.13
2022-09-07T12:49:07.477Z,8.38
2022-09-07T12:54:26.604Z,8.27
2022-09-07T13:00:07.220Z,8.73
2022-09-07T13:02:55.382Z,6.35
2022-09-07T13:05:29.041Z,8.60
2022-09-07T13:08:09.006Z,6.95
2022-09-07T13:10:37.765Z,4.03
2022-09-07T13:13:17.807Z,4.00
2022-09-07T13:15:46.897Z,8.60
2022-09-07T13:18:27.311Z,4.60
2022-09-07T13:21:09.445Z,3.20
2022-09-07T13:23:49.448Z,4.30
2022-09-07T13:26:57.444Z,3.55
2022-09-07T13:29:38.576Z,3.55
2022-09-07T13:33:07.901Z,4.22
2022-09-07T13:35:34.945Z,3.08
2022-09-07T13:38:03.683Z,3.08
2022-09-07T13:40:38.517Z,5.80
2022-09-07T13:43:12.230Z,4.80
2022-09-07T13:46:00.064Z,4.47
2022-09-07T13:48:38.909Z,4.50
2022-09-07T13:51:25.158Z,4.00
2022-09-07T13:54:19.483Z,3.47
2022-09-07T13:56:51.982Z,3.58
2022-09-07T13:59:28.767Z,5.47
2022-09-07T14:01:55.938Z,2.88
2022-09-07T14:04:36.947Z,2.53
2022-09-07T14:07:06.846Z,4.55
2022-09-07T14:09:34.950Z,2.60
2022-09-07T14:12:02.073Z,2.58
2022-09-07T14:14:32.885Z,5.07
2022-09-07T14:16:59.770Z,4.30
2022-09-07T14:19:41.795Z,2.03
2022-09-07T14:22:23.330Z,4.45
2022-09-07T14:25:01.524Z,4.43
2022-09-07T14:27:40.218Z,2.45
2022-09-07T14:30:28.171Z,2.80
2022-09-07T14:33:13.377Z,3.80
2022-09-07T14:35:41.499Z,4.15
2022-09-07T14:38:15.080Z,5.90
2022-09-07T14:40:42.190Z,4.63
2022-09-07T14:43:27.794Z,5.85
2022-09-07T14:46:05.668Z,1.95
2022-09-07T14:48:34.502Z,3.20
2022-09-07T14:51:27.050Z,2.30
2022-09-07T14:53:56.902Z,1.25
2022-09-07T14:56:28.646Z,3.05
2022-09-07T14:58:55.431Z,3.17
2022-09-07T15:01:40.285Z,2.58
2022-09-07T15:04:19.352Z,3.95
2022-09-07T15:07:02.630Z,1.73
2022-09-07T15:09:36.813Z,4.07
2022-09-07T15:12:36.441Z,1.30
2022-09-07T15:15:31.684Z,1.75
2022-09-07T15:18:08.798Z,2.55
2022-09-07T15:20:44.323Z,4.43
2022-09-07T15:23:11.073Z,2.63
2022-09-07T15:25:40.417Z,2.03
2022-09-07T15:28:08.484Z,2.33
2022-09-07T15:30:35.481Z,3.78
2022-09-07T15:33:02.328Z,2.47
2022-09-07T15:35:29.155Z,4.18
2022-09-07T15:38:05.324Z,4.13
2022-09-07T15:41:03.730Z,3.55
2022-09-07T15:43:29.866Z,1.95
2022-09-07T15:45:56.829Z,3.67
2022-09-07T15:48:25.341Z,4.18
2022-09-07T15:51:00.237Z,3.60
2022-09-07T15:56:15.307Z,10.10
2022-09-07T15:58:43.721Z,3.40
2022-09-07T16:03:59.357Z,3.42
2022-09-07T16:06:26.843Z,2.33
2022-09-07T16:08:54.856Z,6.53
2022-09-07T16:11:24.501Z,3.80
2022-09-07T16:14:01.842Z,3.33
2022-09-07T16:19:20.666Z,6.00
2022-09-07T16:21:47.910Z,2.40
2022-09-07T16:24:14.939Z,1.80
2022-09-07T16:26:41.727Z,4.55
2022-09-07T16:29:08.561Z,3.95
2022-09-07T16:31:35.644Z,1.83
2022-09-07T16:34:03.442Z,2.50
2022-09-07T16:36:30.653Z,4.78
2022-09-07T16:39:00.265Z,3.33
2022-09-07T16:41:31.326Z,3.78
2022-09-07T16:43:58.914Z,7.40
2022-09-07T16:46:28.091Z,2.75
2022-09-07T16:48:55.423Z,2.45
2022-09-07T16:51:24.643Z,4.18
2022-09-07T16:53:54.331Z,6.97
2022-09-07T16:56:24.793Z,5.03
2022-09-07T16:58:54.965Z,7.25
2022-09-07T17:01:25.198Z,4.03
2022-09-07T17:03:52.806Z,2.72
2022-09-07T17:06:21.679Z,3.08
2022-09-07T17:08:48.759Z,7.15
2022-09-07T17:11:20.452Z,5.90
2022-09-07T17:13:48.082Z,4.15
2022-09-07T17:16:22.201Z,1.95
2022-09-07T17:21:39.577Z,5.38
2022-09-07T17:24:07.694Z,4.78
2022-09-07T17:26:34.945Z,9.80
2022-09-07T17:29:01.984Z,5.50
2022-09-07T17:34:21.266Z,4.80
2022-09-07T17:36:48.176Z,2.92
2022-09-07T17:39:17.716Z,2.58
2022-09-07T17:41:46.192Z,4.95
2022-09-07T17:44:13.808Z,5.35
2022-09-07T17:46:40.712Z,1.20
2022-09-07T17:49:10.137Z,2.72
2022-09-07T17:51:37.117Z,5.57
2022-09-07T17:54:09.962Z,5.35
2022-09-07T17:56:38.766Z,6.70
2022-09-07T18:01:54.389Z,8.82
2022-09-07T18:04:22.104Z,4.85
2022-09-07T18:06:49.413Z,7.53
2022-09-07T18:09:16.639Z,4.18
2022-09-07T18:11:45.860Z,5.47
2022-09-07T18:14:14.728Z,7.63
2022-09-07T18:16:43.445Z,5.65
2022-09-07T18:19:18.424Z,5.30
2022-09-07T18:21:47.739Z,6.53
2022-09-07T18:24:19.923Z,5.28
2022-09-07T18:26:51.991Z,4.88
2022-09-07T18:29:31.348Z,6.45
2022-09-07T18:32:00.827Z,4.30
2022-09-07T18:34:28.959Z,4.28
2022-09-07T18:36:57.236Z,5.90
2022-09-07T18:39:25.039Z,4.65
2022-09-07T18:41:53.306Z,4.60
2022-09-07T18:47:08.808Z,21.33
2022-09-07T18:49:36.070Z,16.58
2022-09-07T18:54:51.182Z,15.00
2022-09-07T18:57:18.638Z,12.80
2022-09-07T18:59:46.133Z,7.65
2022-09-07T19:02:14.331Z,8.95
2022-09-07T19:07:30.044Z,38.67
2022-09-07T19:09:58.051Z,9.30
2022-09-07T19:12:25.549Z,13.27
2022-09-07T19:14:52.711Z,5.53
2022-09-07T19:17:20.210Z,7.03
2022-09-07T19:19:48.743Z,7.47
2022-09-07T19:22:15.905Z,12.00
2022-09-07T19:24:43.178Z,13.63
2022-09-07T19:27:10.403Z,8.25
2022-09-07T19:29:37.538Z,8.93
2022-09-07T19:32:04.896Z,10.13
2022-09-07T19:34:32.996Z,12.02
2022-09-07T19:37:00.512Z,7.32
2022-09-07T19:39:27.859Z,6.57
2022-09-07T19:41:55.235Z,6.03
2022-09-07T19:44:22.687Z,13.32
2022-09-07T19:46:50.798Z,16.55
2022-09-07T19:49:18.230Z,17.63
2022-09-07T19:51:45.471Z,7.90
2022-09-07T19:54:13.604Z,6.35
2022-09-07T19:56:42.351Z,7.47
2022-09-07T19:59:09.937Z,9.13
2022-09-07T20:01:38.571Z,12.45
2022-09-07T20:04:07.200Z,9.05
2022-09-07T20:06:35.431Z,9.38
2022-09-07T20:09:02.966Z,10.80
2022-09-07T20:11:30.595Z,14.23
2022-09-07T20:13:57.897Z,6.53
2022-09-07T20:16:25.734Z,10.10
2022-09-07T20:18:53.161Z,10.45
2022-09-07T20:21:21.508Z,14.15
2022-09-07T20:23:48.972Z,13.18
2022-09-07T20:26:17.500Z,8.90
2022-09-07T20:28:45.592Z,9.82
2022-09-07T20:31:17.558Z,8.93
2022-09-07T20:33:46.184Z,7.68
2022-09-07T20:36:14.400Z,7.10
2022-09-07T20:38:43.165Z,5.47
2022-09-07T20:41:13.834Z,10.50
2022-09-07T20:43:41.233Z,5.80
2022-09-07T20:46:09.972Z,7.13
2022-09-07T20:48:37.968Z,9.02
2022-09-07T20:51:08.396Z,5.57
2022-09-07T20:53:36.052Z,5.07
2022-09-07T20:56:07.653Z,7.18
2022-09-07T20:58:35.421Z,9.75
2022-09-07T21:01:03.381Z,6.95
2022-09-07T21:03:30.747Z,8.48
2022-09-07T21:06:03.201Z,5.60
2022-09-07T21:08:30.816Z,5.10
2022-09-07T21:10:58.279Z,5.78
2022-09-07T21:13:25.483Z,6.28
2022-09-07T21:15:52.747Z,5.68
2022-09-07T21:18:20.016Z,6.40
2022-09-07T21:21:18.487Z,5.05
2022-09-07T21:23:43.333Z,5.30
2022-09-07T21:26:10.975Z,4.20
2022-09-07T21:28:38.134Z,9.73
2022-09-07T21:31:06.707Z,7.88
2022-09-07T21:33:35.157Z,8.55
2022-09-07T21:36:09.690Z,4.47
2022-09-07T21:38:37.835Z,8.23
2022-09-07T21:41:07.830Z,7.75
2022-09-07T21:43:35.093Z,4.93
2022-09-07T21:46:08.139Z,8.85
2022-09-07T21:48:35.850Z,8.93
2022-09-07T21:51:03.159Z,6.07
2022-09-07T21:53:30.631Z,6.10
2022-09-07T21:55:57.860Z,5.25
2022-09-07T21:58:25.966Z,6.13
2022-09-07T22:00:53.858Z,4.30
2022-09-07T22:03:21.832Z,5.82
2022-09-07T22:05:49.026Z,8.38
2022-09-07T22:08:16.294Z,5.10
2022-09-07T22:10:44.222Z,4.80
2022-09-07T22:13:11.856Z,5.05
2022-09-07T22:15:39.826Z,10.10
2022-09-07T22:18:08.549Z,8.30
2022-09-07T22:20:36.129Z,8.68
2022-09-07T22:23:05.343Z,4.72
2022-09-07T22:25:33.022Z,4.15
2022-09-07T22:28:00.325Z,4.70
2022-09-07T22:30:27.745Z,7.45
2022-09-07T22:32:55.031Z,8.18
2022-09-07T22:35:24.657Z,4.82
2022-09-07T22:37:51.895Z,4.20
2022-09-07T22:40:19.076Z,5.65
2022-09-07T22:42:46.251Z,6.88
2022-09-07T22:45:13.401Z,7.22
2022-09-07T22:47:41.890Z,6.10
2022-09-07T22:50:10.065Z,4.75
2022-09-07T22:52:37.199Z,7.43
2022-09-07T22:55:04.504Z,5.30
2022-09-07T22:57:31.629Z,6.80
2022-09-07T22:59:58.767Z,5.88
2022-09-07T23:02:25.903Z,12.73
2022-09-07T23:04:53.157Z,12.05
2022-09-07T23:07:20.425Z,10.85
2022-09-07T23:09:48.060Z,9.80
2022-09-07T23:12:15.339Z,5.22
2022-09-07T23:14:42.515Z,5.60
2022-09-07T23:17:09.942Z,7.70
2022-09-07T23:19:37.149Z,6.65
2022-09-07T23:22:04.485Z,6.25
2022-09-07T23:24:31.796Z,6.50
2022-09-07T23:26:59.003Z,8.55
2022-09-07T23:29:26.224Z,8.05
2022-09-07T23:31:53.870Z,6.32
2022-09-07T23:34:21.197Z,5.03
2022-09-07T23:36:48.827Z,5.68
2022-09-07T23:39:16.480Z,8.65
2022-09-07T23:41:43.652Z,5.90
2022-09-07T23:44:10.992Z,6.22
2022-09-07T23:46:38.494Z,5.80
2022-09-07T23:49:05.806Z,5.22
2022-09-07T23:51:33.213Z,7.70
2022-09-07T23:54:00.928Z,5.28
2022-09-07T23:56:28.729Z,4.40
2022-09-07T23:58:55.940Z,8.07
